UKDR/KWG METAR and TAF weather

Enter ICAO airport designator
Station Type Date Time Source
UKDR METAR 2019/05/23 18:30 UTC NOAA

UKDR 231830Z 00000MPS CAVOK 19/12 Q1008 R36/09//70 NOSIG


Station Type Date Time Source
UKDR Decoded METAR 2019/05/23 18:30 UTC NOAA

Krivyy Rih / Dnipropetrovs'k, Ukraine (UKDR) 48-03N 033-13-12E
May 23, 2019 - 02:30 PM EDT / 2019.05.23 1830 UTC
Wind: Calm:0
Visibility: greater than 7 mile(s):0
Temperature: 66 F (19 C)
Dew Point: 53 F (12 C)
Relative Humidity: 63%
Pressure (altimeter): 29.77 in. Hg (1008 hPa)
ob: UKDR 231830Z 00000MPS CAVOK 19/12 Q1008 R36/09//70 NOSIG
cycle: 18

Station Type Date Time Source
UKDR TAF 2019/05/23 18:00 UTC NOAA

TAF UKDR 231706Z 2318/2418 VRB01MPS 9999 SCT030
TEMPO 2321/2406 1100 BR BKN003
BECMG 2406/2408 16003MPS
TEMPO 2409/2418 VRB10G15MPS 2500 -TSRA SQ BKN007 BKN015CB

Example: see airport list